createdAt,value
2023-02-09T00:02:13.614Z,63.53
2023-02-09T00:04:43.000Z,71.37
2023-02-09T00:07:10.967Z,72.87
2023-02-09T00:09:39.090Z,69.57
2023-02-09T00:12:24.804Z,71.57
2023-02-09T00:14:52.845Z,70.80
2023-02-09T00:17:20.815Z,72.13
2023-02-09T00:19:50.140Z,66.20
2023-02-09T00:22:18.111Z,66.53
2023-02-09T00:24:46.175Z,70.23
2023-02-09T00:27:14.183Z,71.30
2023-02-09T00:29:42.192Z,68.40
2023-02-09T00:32:10.196Z,72.23
2023-02-09T00:34:38.542Z,67.07
2023-02-09T00:37:07.886Z,72.13
2023-02-09T00:39:35.921Z,72.63
2023-02-09T00:42:06.950Z,76.30
2023-02-09T00:44:37.975Z,78.20
2023-02-09T00:47:07.317Z,75.00
2023-02-09T00:49:35.695Z,77.33
2023-02-09T00:52:03.849Z,75.17
2023-02-09T00:54:33.444Z,75.47
2023-02-09T00:57:05.252Z,78.43
2023-02-09T00:59:34.945Z,78.13
2023-02-09T01:02:03.606Z,82.83
2023-02-09T01:04:31.816Z,79.00
2023-02-09T01:06:59.888Z,80.03
2023-02-09T01:09:27.862Z,78.27
2023-02-09T01:11:57.244Z,78.00
2023-02-09T01:14:25.257Z,78.30
2023-02-09T01:16:53.259Z,72.93
2023-02-09T01:19:21.265Z,70.80
2023-02-09T01:21:50.032Z,76.97
2023-02-09T01:24:17.991Z,74.00
2023-02-09T01:26:46.036Z,77.83
2023-02-09T01:29:17.768Z,80.03
2023-02-09T01:31:46.176Z,77.37
2023-02-09T01:34:16.828Z,78.27
2023-02-09T01:36:45.647Z,72.03
2023-02-09T01:39:14.846Z,74.07
2023-02-09T01:41:43.571Z,70.80
2023-02-09T01:44:44.717Z,66.57
2023-02-09T01:47:18.463Z,66.50
2023-02-09T01:49:48.818Z,63.97
2023-02-09T01:52:20.479Z,69.27
2023-02-09T01:54:52.336Z,64.27
2023-02-09T01:57:24.569Z,61.47
2023-02-09T01:59:58.304Z,80.10
2023-02-09T02:02:28.074Z,86.77
2023-02-09T02:04:56.318Z,86.63
2023-02-09T02:07:30.676Z,82.37
2023-02-09T02:09:59.387Z,76.77
2023-02-09T02:12:27.863Z,84.90
2023-02-09T02:14:55.844Z,71.47
2023-02-09T02:17:35.938Z,71.37
2023-02-09T02:20:44.191Z,74.53
2023-02-09T02:23:21.536Z,75.80
2023-02-09T02:26:21.414Z,75.23
2023-02-09T02:29:19.699Z,78.87
2023-02-09T02:32:08.495Z,75.20
2023-02-09T02:34:45.624Z,83.00
2023-02-09T02:37:23.735Z,69.70
2023-02-09T02:39:58.728Z,71.90
2023-02-09T02:42:49.294Z,68.40
2023-02-09T02:45:24.732Z,73.37
2023-02-09T02:48:01.523Z,67.07
2023-02-09T02:50:32.424Z,66.63
2023-02-09T02:53:06.770Z,66.10
2023-02-09T02:55:36.882Z,61.37
2023-02-09T02:58:08.786Z,64.63
2023-02-09T03:00:42.107Z,68.67
2023-02-09T03:03:15.433Z,60.30
2023-02-09T03:05:44.478Z,61.77
2023-02-09T03:08:12.729Z,65.03
2023-02-09T03:10:42.678Z,65.87
2023-02-09T03:13:33.096Z,62.03
2023-02-09T03:16:15.802Z,66.33
2023-02-09T03:19:01.709Z,67.07
2023-02-09T03:21:41.550Z,64.90
2023-02-09T03:24:19.314Z,73.77
2023-02-09T03:26:53.097Z,75.40
2023-02-09T03:29:22.642Z,78.27
2023-02-09T03:31:52.009Z,81.47
2023-02-09T03:34:21.382Z,69.60
2023-02-09T03:36:52.998Z,70.80
2023-02-09T03:39:20.976Z,73.87
2023-02-09T03:41:48.956Z,64.57
2023-02-09T03:44:29.007Z,63.80
2023-02-09T03:46:59.766Z,68.87
2023-02-09T03:49:31.803Z,66.87
2023-02-09T03:52:00.666Z,67.77
2023-02-09T03:54:29.171Z,64.90
2023-02-09T03:56:57.829Z,68.13
2023-02-09T03:59:26.354Z,65.67
2023-02-09T04:01:55.490Z,63.00
2023-02-09T04:04:23.970Z,61.33
2023-02-09T04:06:56.064Z,60.90
2023-02-09T04:09:24.197Z,62.37
2023-02-09T04:11:52.205Z,61.40
2023-02-09T04:14:20.356Z,61.63
2023-02-09T04:16:48.676Z,58.50
2023-02-09T04:19:17.472Z,56.93
2023-02-09T04:21:45.446Z,66.87
2023-02-09T04:24:14.759Z,62.20
2023-02-09T04:26:42.706Z,60.03
2023-02-09T04:29:10.683Z,59.20
2023-02-09T04:31:38.865Z,61.80
2023-02-09T04:34:06.878Z,59.67
2023-02-09T04:36:34.897Z,62.63
2023-02-09T04:39:02.891Z,59.03
2023-02-09T04:41:32.227Z,62.90
2023-02-09T04:44:00.203Z,60.70
2023-02-09T04:46:28.134Z,59.57
2023-02-09T04:48:56.142Z,63.83
2023-02-09T04:51:24.098Z,58.97
2023-02-09T04:53:52.087Z,62.00
2023-02-09T04:56:20.439Z,57.80
2023-02-09T04:59:07.142Z,57.77
2023-02-09T05:01:36.323Z,59.93
2023-02-09T05:04:04.350Z,65.90
2023-02-09T05:06:32.342Z,60.77
2023-02-09T05:09:00.290Z,62.23
2023-02-09T05:11:28.392Z,62.10
2023-02-09T05:13:58.286Z,61.83
2023-02-09T05:16:26.265Z,60.60
2023-02-09T05:18:55.439Z,58.87
2023-02-09T05:21:23.390Z,59.17
2023-02-09T05:23:51.384Z,61.30
2023-02-09T05:26:19.361Z,60.13
2023-02-09T05:28:47.347Z,61.90
2023-02-09T05:31:17.880Z,65.70
2023-02-09T05:33:46.016Z,64.33
2023-02-09T05:36:13.980Z,61.63
2023-02-09T05:38:41.968Z,67.67
2023-02-09T05:41:11.486Z,71.17
2023-02-09T05:43:39.740Z,67.47
2023-02-09T05:46:08.526Z,63.47
2023-02-09T05:48:40.129Z,70.33
2023-02-09T05:51:08.107Z,66.43
2023-02-09T05:53:36.101Z,70.00
2023-02-09T05:56:04.168Z,66.93
2023-02-09T05:58:32.134Z,72.13
2023-02-09T06:01:00.129Z,63.37
2023-02-09T06:03:28.163Z,59.97
2023-02-09T06:05:57.500Z,64.93
2023-02-09T06:08:25.492Z,73.47
2023-02-09T06:10:53.469Z,66.50
2023-02-09T06:13:21.419Z,65.37
2023-02-09T06:15:49.500Z,67.27
2023-02-09T06:18:17.571Z,67.83
2023-02-09T06:20:45.935Z,61.47
2023-02-09T06:23:15.448Z,64.20
2023-02-09T06:25:43.406Z,61.23
2023-02-09T06:28:11.456Z,68.73
2023-02-09T06:30:39.579Z,64.90
2023-02-09T06:33:07.579Z,64.53
2023-02-09T06:35:35.784Z,65.43
2023-02-09T06:38:03.756Z,62.77
2023-02-09T06:40:33.123Z,62.53
2023-02-09T06:43:01.433Z,57.80
2023-02-09T06:45:29.469Z,56.80
2023-02-09T06:47:57.457Z,53.20
2023-02-09T06:50:25.450Z,48.90
2023-02-09T06:52:53.609Z,52.33
2023-02-09T06:55:23.882Z,57.57
2023-02-09T06:57:53.551Z,57.63
2023-02-09T07:00:22.324Z,66.27
2023-02-09T07:02:50.795Z,74.93
2023-02-09T07:05:19.304Z,80.30
2023-02-09T07:07:48.294Z,76.47
2023-02-09T07:10:19.511Z,76.80
2023-02-09T07:12:47.488Z,68.70
2023-02-09T07:15:17.241Z,78.63
2023-02-09T07:17:45.224Z,70.37
2023-02-09T07:20:13.980Z,73.23
2023-02-09T07:22:42.158Z,90.07
2023-02-09T07:25:10.372Z,85.60
2023-02-09T07:27:38.358Z,85.80
2023-02-09T07:30:06.828Z,86.40
2023-02-09T07:32:37.989Z,81.50
2023-02-09T07:35:06.651Z,76.57
2023-02-09T07:37:36.265Z,76.30
2023-02-09T07:40:04.990Z,73.70
2023-02-09T07:42:33.017Z,81.47
2023-02-09T07:45:00.956Z,84.37
2023-02-09T07:47:28.935Z,84.70
2023-02-09T07:49:58.514Z,82.17
2023-02-09T07:52:26.558Z,81.30
2023-02-09T07:54:57.280Z,84.73
2023-02-09T07:57:27.498Z,79.50
2023-02-09T07:59:55.573Z,77.93
2023-02-09T08:02:29.697Z,73.10
2023-02-09T08:05:01.090Z,71.73
2023-02-09T08:07:29.468Z,71.27
2023-02-09T08:09:57.470Z,69.70
2023-02-09T08:12:42.787Z,65.40
2023-02-09T08:15:11.346Z,64.33
2023-02-09T08:17:39.479Z,69.07
2023-02-09T08:20:12.900Z,69.60
2023-02-09T08:22:46.581Z,77.80
2023-02-09T08:25:16.159Z,80.40
2023-02-09T08:27:44.836Z,93.83
2023-02-09T08:30:19.325Z,89.97
2023-02-09T08:32:47.297Z,95.30
2023-02-09T08:35:16.729Z,72.97
2023-02-09T08:37:44.724Z,60.17
2023-02-09T08:40:14.863Z,62.63
2023-02-09T08:42:42.917Z,55.93
2023-02-09T08:45:11.351Z,53.10
2023-02-09T08:47:39.613Z,50.93
2023-02-09T08:50:08.148Z,49.77
2023-02-09T08:52:37.496Z,47.37
2023-02-09T08:55:05.967Z,39.33
2023-02-09T08:57:43.615Z,45.00
2023-02-09T09:00:13.917Z,46.43
2023-02-09T09:02:41.906Z,46.70
2023-02-09T09:05:09.940Z,48.30
2023-02-09T09:07:39.440Z,48.20
2023-02-09T09:10:09.250Z,48.00
2023-02-09T09:12:37.776Z,44.83
2023-02-09T09:15:06.663Z,47.67
2023-02-09T09:17:35.846Z,44.13
2023-02-09T09:20:04.269Z,42.83
2023-02-09T09:22:32.230Z,43.13
2023-02-09T09:25:01.672Z,43.70
2023-02-09T09:27:32.552Z,43.63
2023-02-09T09:30:00.537Z,38.33
2023-02-09T09:32:28.800Z,42.57
2023-02-09T09:34:58.236Z,44.93
2023-02-09T09:37:27.192Z,44.23
2023-02-09T09:39:55.170Z,48.40
2023-02-09T09:42:32.801Z,39.63
2023-02-09T09:45:00.884Z,35.87
2023-02-09T09:47:38.006Z,37.23
2023-02-09T09:50:08.839Z,33.77
2023-02-09T09:52:41.373Z,30.90
2023-02-09T09:55:15.621Z,28.40
2023-02-09T09:57:45.993Z,26.77
2023-02-09T10:00:20.051Z,28.10
2023-02-09T10:02:48.358Z,29.43
2023-02-09T10:05:21.126Z,30.63
2023-02-09T10:07:56.782Z,30.50
2023-02-09T10:10:39.750Z,30.40
2023-02-09T10:13:19.538Z,30.83
2023-02-09T10:15:49.829Z,33.60
2023-02-09T10:18:25.123Z,34.70
2023-02-09T10:20:56.484Z,37.13
2023-02-09T10:23:27.132Z,32.73
2023-02-09T10:26:03.746Z,36.03
2023-02-09T10:28:34.924Z,35.97
2023-02-09T10:31:10.853Z,32.07
2023-02-09T10:33:43.867Z,33.13
2023-02-09T10:36:24.957Z,36.60
2023-02-09T10:38:54.206Z,40.13
2023-02-09T10:41:23.498Z,39.03
2023-02-09T10:43:56.061Z,35.87
2023-02-09T10:46:25.348Z,37.07
2023-02-09T10:48:53.567Z,36.77
2023-02-09T10:51:29.073Z,37.60
2023-02-09T10:54:19.956Z,36.40
2023-02-09T10:56:50.350Z,41.53
2023-02-09T10:59:21.985Z,43.17
2023-02-09T11:01:55.802Z,46.63
2023-02-09T11:04:25.636Z,40.47
2023-02-09T11:06:57.415Z,37.83
2023-02-09T11:09:29.081Z,37.97
2023-02-09T11:11:57.467Z,41.50
2023-02-09T11:14:27.269Z,41.97
2023-02-09T11:17:15.440Z,41.97
2023-02-09T11:20:17.118Z,36.50
2023-02-09T11:22:55.996Z,38.60
2023-02-09T11:25:27.340Z,35.10
2023-02-09T11:28:19.628Z,42.83
2023-02-09T11:31:01.085Z,40.40
2023-02-09T11:33:40.227Z,43.37
2023-02-09T11:36:21.135Z,37.43
2023-02-09T11:38:55.577Z,38.13
2023-02-09T11:41:47.752Z,40.03
2023-02-09T11:44:23.072Z,40.47
2023-02-09T11:46:57.339Z,37.90
2023-02-09T11:49:30.328Z,36.37
2023-02-09T11:52:00.545Z,37.20
2023-02-09T11:54:34.848Z,39.63
2023-02-09T11:57:12.408Z,37.23
2023-02-09T11:59:44.346Z,39.77
2023-02-09T12:02:24.223Z,37.80
2023-02-09T12:04:59.480Z,36.80
2023-02-09T12:07:36.754Z,36.00
2023-02-09T12:10:17.957Z,37.03
2023-02-09T12:12:49.808Z,35.97
2023-02-09T12:15:20.523Z,35.87
2023-02-09T12:17:55.817Z,34.20
2023-02-09T12:20:29.780Z,34.50
2023-02-09T12:23:07.777Z,36.87
2023-02-09T12:25:57.039Z,27.10
2023-02-09T12:28:44.848Z,28.87
2023-02-09T12:31:22.531Z,28.27
2023-02-09T12:34:15.709Z,23.80
2023-02-09T12:37:01.559Z,18.73
2023-02-09T12:39:32.322Z,17.40
2023-02-09T12:42:29.826Z,22.53
2023-02-09T12:45:00.569Z,24.80
2023-02-09T12:47:46.493Z,21.73
2023-02-09T12:50:28.001Z,20.90
2023-02-09T12:53:47.886Z,17.90
2023-02-09T12:56:35.161Z,18.37
2023-02-09T12:59:18.896Z,17.73
2023-02-09T13:02:27.522Z,17.60
2023-02-09T13:05:01.980Z,16.70
2023-02-09T13:07:49.996Z,18.80
2023-02-09T13:10:25.464Z,20.63
2023-02-09T13:12:58.080Z,17.73
2023-02-09T13:15:30.170Z,23.87
2023-02-09T13:18:15.049Z,23.13
2023-02-09T13:21:00.508Z,18.43
2023-02-09T13:23:34.779Z,17.60
2023-02-09T13:26:15.267Z,15.60
2023-02-09T13:28:43.252Z,18.63
2023-02-09T13:31:24.648Z,18.00
2023-02-09T13:33:56.766Z,18.33
2023-02-09T13:36:36.243Z,16.70
2023-02-09T13:39:10.088Z,19.20
2023-02-09T13:41:40.603Z,19.03
2023-02-09T13:44:21.298Z,19.63
2023-02-09T13:46:54.200Z,26.00
2023-02-09T13:49:23.331Z,21.63
2023-02-09T13:52:10.882Z,22.47
2023-02-09T13:54:40.566Z,24.00
2023-02-09T13:57:15.265Z,20.50
2023-02-09T13:59:44.464Z,22.47
2023-02-09T14:02:21.837Z,25.67
2023-02-09T14:04:53.037Z,21.93
2023-02-09T14:07:23.683Z,22.77
2023-02-09T14:09:58.067Z,24.37
2023-02-09T14:12:55.755Z,21.77
2023-02-09T14:15:48.856Z,22.83
2023-02-09T14:18:33.341Z,25.10
2023-02-09T14:21:04.771Z,21.80
2023-02-09T14:23:35.519Z,22.67
2023-02-09T14:26:08.086Z,25.20
2023-02-09T14:28:38.331Z,25.07
2023-02-09T14:31:08.186Z,22.53
2023-02-09T14:33:38.655Z,27.17
2023-02-09T14:36:09.665Z,22.73
2023-02-09T14:38:39.765Z,25.00
2023-02-09T14:41:31.062Z,23.07
2023-02-09T14:44:03.732Z,23.77
2023-02-09T14:46:47.486Z,24.67
2023-02-09T14:49:19.374Z,26.47
2023-02-09T14:51:49.184Z,25.83
2023-02-09T14:54:24.067Z,24.20
2023-02-09T14:56:54.441Z,22.53
2023-02-09T14:59:23.539Z,21.03
2023-02-09T15:01:54.126Z,23.47
2023-02-09T15:04:22.327Z,21.87
2023-02-09T15:07:01.217Z,21.60
2023-02-09T15:09:35.932Z,20.33
2023-02-09T15:12:07.131Z,26.10
2023-02-09T15:14:43.412Z,29.03
2023-02-09T15:17:16.770Z,24.40
2023-02-09T15:19:45.490Z,26.10
2023-02-09T15:22:15.111Z,27.43
2023-02-09T15:24:44.430Z,22.83
2023-02-09T15:27:24.067Z,22.70
2023-02-09T15:29:52.579Z,24.37
2023-02-09T15:32:22.908Z,20.57
2023-02-09T15:34:51.792Z,21.93
2023-02-09T15:37:22.823Z,22.93
2023-02-09T15:39:52.401Z,20.63
2023-02-09T15:42:39.552Z,23.20
2023-02-09T15:45:35.823Z,24.90
2023-02-09T15:48:05.253Z,22.83
2023-02-09T15:50:34.886Z,24.33
2023-02-09T15:53:04.117Z,24.50
2023-02-09T15:55:32.512Z,24.17
2023-02-09T15:58:05.155Z,24.77
2023-02-09T16:00:33.128Z,28.17
2023-02-09T16:03:02.744Z,28.20
2023-02-09T16:05:32.263Z,25.67
2023-02-09T16:08:00.936Z,29.80
2023-02-09T16:10:30.761Z,35.57
2023-02-09T16:12:58.777Z,34.13
2023-02-09T16:15:28.656Z,37.17
2023-02-09T16:17:56.672Z,44.70
2023-02-09T16:20:26.099Z,64.20
2023-02-09T16:22:57.687Z,51.50
2023-02-09T16:25:27.439Z,52.07
2023-02-09T16:27:59.092Z,50.57
2023-02-09T16:30:33.230Z,46.63
2023-02-09T16:33:01.872Z,43.43
2023-02-09T16:35:31.807Z,39.30
2023-02-09T16:37:59.859Z,41.00
2023-02-09T16:40:29.886Z,35.50
2023-02-09T16:42:59.282Z,35.10
2023-02-09T16:45:31.619Z,31.00
2023-02-09T16:47:59.840Z,31.77
2023-02-09T16:50:44.494Z,31.70
2023-02-09T16:53:18.058Z,30.03
2023-02-09T16:55:49.238Z,31.03
2023-02-09T16:58:18.402Z,26.93
2023-02-09T17:00:48.078Z,27.00
2023-02-09T17:03:19.797Z,27.90
2023-02-09T17:05:49.992Z,28.10
2023-02-09T17:08:20.099Z,27.37
2023-02-09T17:10:49.695Z,28.20
2023-02-09T17:13:20.551Z,29.73
2023-02-09T17:15:51.749Z,35.67
2023-02-09T17:18:23.617Z,35.73
2023-02-09T17:20:55.475Z,34.07
2023-02-09T17:23:25.012Z,50.13
2023-02-09T17:25:55.144Z,38.73
2023-02-09T17:28:24.162Z,39.47
2023-02-09T17:30:57.910Z,47.37
2023-02-09T17:33:29.157Z,50.70
2023-02-09T17:36:24.308Z,47.10
2023-02-09T17:38:46.890Z,44.50
2023-02-09T17:41:17.883Z,47.30
2023-02-09T17:43:45.941Z,48.37
2023-02-09T17:46:18.481Z,46.27
2023-02-09T17:48:47.205Z,46.80
2023-02-09T17:51:20.993Z,43.67
2023-02-09T17:53:49.417Z,45.60
2023-02-09T17:56:18.422Z,45.17
2023-02-09T17:58:46.622Z,42.80
2023-02-09T18:01:26.401Z,46.40
2023-02-09T18:03:55.466Z,46.43
2023-02-09T18:06:33.403Z,45.40
2023-02-09T18:09:02.648Z,45.77
2023-02-09T18:11:57.195Z,49.20
2023-02-09T18:14:27.035Z,47.93
2023-02-09T18:16:56.649Z,48.07
2023-02-09T18:19:28.591Z,53.33
2023-02-09T18:21:58.267Z,56.87
2023-02-09T18:24:28.155Z,56.53
2023-02-09T18:26:56.544Z,60.07
2023-02-09T18:29:29.154Z,63.97
2023-02-09T18:31:59.671Z,67.03
2023-02-09T18:34:28.026Z,65.70
2023-02-09T18:36:56.113Z,65.53
2023-02-09T18:39:24.306Z,69.37
2023-02-09T18:41:54.545Z,74.53
2023-02-09T18:44:28.386Z,87.97
2023-02-09T18:47:00.559Z,96.27
2023-02-09T18:49:28.643Z,103.57
2023-02-09T18:51:58.784Z,106.23
2023-02-09T18:54:28.840Z,102.03
2023-02-09T18:56:56.998Z,104.27
2023-02-09T18:59:29.367Z,95.60
2023-02-09T19:01:59.084Z,95.10
2023-02-09T19:04:27.447Z,86.50
2023-02-09T19:06:58.439Z,79.00
2023-02-09T19:09:26.545Z,80.23
2023-02-09T19:11:54.794Z,80.60
2023-02-09T19:14:41.092Z,84.83
2023-02-09T19:17:14.010Z,86.57
2023-02-09T19:19:42.522Z,83.77
2023-02-09T19:22:11.747Z,81.47
2023-02-09T19:24:39.720Z,91.37
2023-02-09T19:27:10.110Z,89.63
2023-02-09T19:29:39.051Z,88.43
2023-02-09T19:32:07.016Z,86.07
2023-02-09T19:34:38.717Z,87.37
2023-02-09T19:37:08.796Z,81.97
2023-02-09T19:39:38.667Z,80.00
2023-02-09T19:42:07.078Z,82.43
2023-02-09T19:44:37.042Z,94.87
2023-02-09T19:47:05.052Z,91.67
2023-02-09T19:49:34.485Z,89.17
2023-02-09T19:52:03.925Z,95.20
2023-02-09T19:54:32.231Z,95.83
2023-02-09T19:57:00.787Z,97.13
2023-02-09T19:59:29.019Z,94.50
2023-02-09T20:01:57.008Z,92.53
2023-02-09T20:04:25.310Z,93.33
2023-02-09T20:06:53.375Z,102.03
2023-02-09T20:09:22.862Z,102.57
2023-02-09T20:11:51.116Z,94.73
2023-02-09T20:14:19.155Z,96.50
2023-02-09T20:16:47.199Z,93.07
2023-02-09T20:19:15.189Z,90.90
2023-02-09T20:21:43.170Z,84.17
2023-02-09T20:24:12.871Z,91.43
2023-02-09T20:26:44.349Z,91.47
2023-02-09T20:29:16.803Z,92.93
2023-02-09T20:31:45.301Z,88.53
2023-02-09T20:34:15.872Z,86.53
2023-02-09T20:36:45.863Z,89.37
2023-02-09T20:39:16.059Z,90.20
2023-02-09T20:42:06.552Z,93.43
2023-02-09T20:44:52.531Z,89.63
2023-02-09T20:47:20.798Z,91.63
2023-02-09T20:49:49.161Z,98.43
2023-02-09T20:52:17.276Z,92.37
2023-02-09T20:54:45.233Z,99.83
2023-02-09T20:57:17.895Z,94.47
2023-02-09T20:59:45.884Z,95.20
2023-02-09T21:02:16.018Z,104.13
2023-02-09T21:04:44.129Z,92.23
2023-02-09T21:07:12.187Z,89.03
2023-02-09T21:09:40.158Z,85.37
2023-02-09T21:12:08.300Z,84.60
2023-02-09T21:14:42.248Z,90.77
2023-02-09T21:17:11.891Z,89.00
2023-02-09T21:19:39.916Z,82.87
2023-02-09T21:22:08.427Z,85.80
2023-02-09T21:24:38.978Z,82.80
2023-02-09T21:27:07.389Z,87.80
2023-02-09T21:29:37.935Z,87.60
2023-02-09T21:32:07.972Z,88.63
2023-02-09T21:34:36.173Z,84.83
2023-02-09T21:37:07.746Z,81.80
2023-02-09T21:39:38.016Z,79.83
2023-02-09T21:42:23.814Z,82.87
2023-02-09T21:45:00.127Z,81.90
2023-02-09T21:47:36.106Z,74.30
2023-02-09T21:50:06.133Z,75.77
2023-02-09T21:52:36.252Z,78.17
2023-02-09T21:55:05.339Z,78.90
2023-02-09T21:57:33.363Z,76.17
2023-02-09T22:00:06.513Z,81.30
2023-02-09T22:02:37.608Z,75.73
2023-02-09T22:05:18.859Z,71.77
2023-02-09T22:07:48.288Z,73.83
2023-02-09T22:10:19.413Z,67.97
2023-02-09T22:12:48.005Z,71.17
2023-02-09T22:15:19.076Z,71.37
2023-02-09T22:17:48.238Z,77.90
2023-02-09T22:20:19.110Z,82.43
2023-02-09T22:22:47.077Z,87.67
2023-02-09T22:25:15.015Z,106.43
2023-02-09T22:27:43.019Z,111.03
2023-02-09T22:30:12.112Z,117.60
2023-02-09T22:32:41.416Z,115.33
2023-02-09T22:35:09.622Z,117.83
2023-02-09T22:37:37.559Z,119.43
2023-02-09T22:40:06.066Z,126.67
2023-02-09T22:42:34.046Z,120.17
2023-02-09T22:45:02.065Z,120.47
2023-02-09T22:47:30.052Z,121.97
2023-02-09T22:49:59.415Z,131.53
2023-02-09T22:52:27.959Z,120.37
2023-02-09T22:54:57.757Z,117.80
2023-02-09T22:57:26.019Z,112.77
2023-02-09T22:59:57.031Z,104.60
2023-02-09T23:02:25.084Z,101.23
2023-02-09T23:04:55.557Z,107.27
2023-02-09T23:07:25.387Z,93.33
2023-02-09T23:09:53.664Z,94.13
2023-02-09T23:12:21.639Z,92.30
2023-02-09T23:14:49.987Z,92.93
2023-02-09T23:17:17.958Z,93.30
2023-02-09T23:19:45.971Z,90.20
2023-02-09T23:22:13.966Z,88.30
2023-02-09T23:24:43.558Z,92.23
2023-02-09T23:27:11.602Z,91.63
2023-02-09T23:29:39.596Z,93.33
2023-02-09T23:32:07.568Z,94.53
2023-02-09T23:34:38.407Z,98.13
2023-02-09T23:37:13.769Z,96.43
2023-02-09T23:39:53.223Z,110.57
2023-02-09T23:42:21.528Z,111.43
2023-02-09T23:44:49.499Z,118.37
2023-02-09T23:47:17.556Z,117.73
2023-02-09T23:49:45.511Z,116.63
2023-02-09T23:52:13.470Z,124.10
2023-02-09T23:54:41.433Z,119.17
2023-02-09T23:57:10.767Z,125.87
2023-02-09T23:59:39.509Z,131.50
